Aviation Digital Data Service (ADDS)

Output produced by TAFs form (2016 UTC 04 March 2015)
found at http://aviationweather.gov/adds/tafs/
 
KMTJ 041728Z 0418/0518 33004KT P6SM SCT070 
     TEMPO 0418/0419 BKN070 
     FM041900 34008KT P6SM SCT060 
     FM050200 14006KT P6SM SKC